sensor_id;sensor_type;location;lat;lon;timestamp;temperature;humidity
6102;DHT22;3081;50.584;7.032;2023-02-15T00:01:52;1.80;99.90
6102;DHT22;3081;50.584;7.032;2023-02-15T00:04:21;1.80;99.90
6102;DHT22;3081;50.584;7.032;2023-02-15T00:06:49;1.80;99.90
6102;DHT22;3081;50.584;7.032;2023-02-15T00:09:17;1.80;99.90
6102;DHT22;3081;50.584;7.032;2023-02-15T00:11:44;1.80;99.90
6102;DHT22;3081;50.584;7.032;2023-02-15T00:14:17;1.90;99.90
6102;DHT22;3081;50.584;7.032;2023-02-15T00:16:44;1.80;99.90
6102;DHT22;3081;50.584;7.032;2023-02-15T00:19:13;1.80;99.90
6102;DHT22;3081;50.584;7.032;2023-02-15T00:21:40;1.80;99.90
6102;DHT22;3081;50.584;7.032;2023-02-15T00:24:09;1.70;99.90
6102;DHT22;3081;50.584;7.032;2023-02-15T00:26:39;1.60;99.90
6102;DHT22;3081;50.584;7.032;2023-02-15T00:29:07;1.60;99.90
6102;DHT22;3081;50.584;7.032;2023-02-15T00:31:35;1.60;99.90
6102;DHT22;3081;50.584;7.032;2023-02-15T00:34:02;1.50;99.90
6102;DHT22;3081;50.584;7.032;2023-02-15T00:36:30;1.50;99.90
6102;DHT22;3081;50.584;7.032;2023-02-15T00:38:57;1.40;99.90
6102;DHT22;3081;50.584;7.032;2023-02-15T00:41:24;1.40;99.90
6102;DHT22;3081;50.584;7.032;2023-02-15T00:43:52;1.30;99.90
6102;DHT22;3081;50.584;7.032;2023-02-15T00:46:19;1.30;99.90
6102;DHT22;3081;50.584;7.032;2023-02-15T00:48:46;1.40;99.90
6102;DHT22;3081;50.584;7.032;2023-02-15T00:51:13;1.40;99.90
6102;DHT22;3081;50.584;7.032;2023-02-15T00:53:40;1.30;99.90
6102;DHT22;3081;50.584;7.032;2023-02-15T00:56:07;1.20;99.90
6102;DHT22;3081;50.584;7.032;2023-02-15T00:58:33;1.20;99.90
6102;DHT22;3081;50.584;7.032;2023-02-15T01:01:06;0.90;99.90
6102;DHT22;3081;50.584;7.032;2023-02-15T01:03:33;1.10;99.90
6102;DHT22;3081;50.584;7.032;2023-02-15T01:06:01;1.20;99.90
6102;DHT22;3081;50.584;7.032;2023-02-15T01:08:28;1.30;99.90
6102;DHT22;3081;50.584;7.032;2023-02-15T01:10:55;1.30;99.90
6102;DHT22;3081;50.584;7.032;2023-02-15T01:13:22;1.30;99.90
6102;DHT22;3081;50.584;7.032;2023-02-15T01:15:53;1.40;99.90
6102;DHT22;3081;50.584;7.032;2023-02-15T01:18:21;1.40;99.90
6102;DHT22;3081;50.584;7.032;2023-02-15T01:20:49;1.50;99.90
6102;DHT22;3081;50.584;7.032;2023-02-15T01:23:16;1.40;99.90
6102;DHT22;3081;50.584;7.032;2023-02-15T01:25:43;1.40;99.90
6102;DHT22;3081;50.584;7.032;2023-02-15T01:28:10;1.50;99.90
6102;DHT22;3081;50.584;7.032;2023-02-15T01:30:37;1.50;99.90
6102;DHT22;3081;50.584;7.032;2023-02-15T01:33:04;1.60;99.90
6102;DHT22;3081;50.584;7.032;2023-02-15T01:35:32;1.60;99.90
6102;DHT22;3081;50.584;7.032;2023-02-15T01:37:59;1.70;99.90
6102;DHT22;3081;50.584;7.032;2023-02-15T01:40:26;1.70;99.90
6102;DHT22;3081;50.584;7.032;2023-02-15T01:42:54;1.80;99.90
6102;DHT22;3081;50.584;7.032;2023-02-15T01:45:24;2.60;99.90
6102;DHT22;3081;50.584;7.032;2023-02-15T01:47:56;1.80;99.90
6102;DHT22;3081;50.584;7.032;2023-02-15T01:50:29;1.80;99.90
6102;DHT22;3081;50.584;7.032;2023-02-15T01:53:03;1.70;99.90
6102;DHT22;3081;50.584;7.032;2023-02-15T01:55:33;1.80;99.90
6102;DHT22;3081;50.584;7.032;2023-02-15T01:58:02;1.80;99.90
6102;DHT22;3081;50.584;7.032;2023-02-15T02:00:30;1.80;99.90
6102;DHT22;3081;50.584;7.032;2023-02-15T02:02:57;1.70;99.90
6102;DHT22;3081;50.584;7.032;2023-02-15T02:05:24;1.70;99.90
6102;DHT22;3081;50.584;7.032;2023-02-15T02:07:55;1.70;99.90
6102;DHT22;3081;50.584;7.032;2023-02-15T02:10:24;1.70;99.90
6102;DHT22;3081;50.584;7.032;2023-02-15T02:12:54;1.70;99.90
6102;DHT22;3081;50.584;7.032;2023-02-15T02:15:27;1.80;99.90
6102;DHT22;3081;50.584;7.032;2023-02-15T02:18:05;1.70;99.90
6102;DHT22;3081;50.584;7.032;2023-02-15T02:21:09;1.70;99.90
6102;DHT22;3081;50.584;7.032;2023-02-15T02:23:51;1.60;99.90
6102;DHT22;3081;50.584;7.032;2023-02-15T02:27:12;1.60;99.90
6102;DHT22;3081;50.584;7.032;2023-02-15T02:33:38;1.60;99.90
6102;DHT22;3081;50.584;7.032;2023-02-15T02:36:15;1.60;99.90
6102;DHT22;3081;50.584;7.032;2023-02-15T02:38:54;1.50;99.90
6102;DHT22;3081;50.584;7.032;2023-02-15T02:41:30;1.50;99.90
6102;DHT22;3081;50.584;7.032;2023-02-15T02:44:02;1.60;99.90
6102;DHT22;3081;50.584;7.032;2023-02-15T02:46:35;1.50;99.90
6102;DHT22;3081;50.584;7.032;2023-02-15T02:49:05;1.60;99.90
6102;DHT22;3081;50.584;7.032;2023-02-15T02:51:31;1.60;99.90
6102;DHT22;3081;50.584;7.032;2023-02-15T02:54:01;1.60;99.90
6102;DHT22;3081;50.584;7.032;2023-02-15T02:56:33;1.60;99.90
6102;DHT22;3081;50.584;7.032;2023-02-15T02:59:07;1.60;99.90
6102;DHT22;3081;50.584;7.032;2023-02-15T03:01:39;1.60;99.90
6102;DHT22;3081;50.584;7.032;2023-02-15T03:04:11;1.50;99.90
6102;DHT22;3081;50.584;7.032;2023-02-15T03:06:44;1.50;99.90
6102;DHT22;3081;50.584;7.032;2023-02-15T03:09:15;1.40;99.90
6102;DHT22;3081;50.584;7.032;2023-02-15T03:11:44;1.40;99.90
6102;DHT22;3081;50.584;7.032;2023-02-15T03:14:12;1.40;99.90
6102;DHT22;3081;50.584;7.032;2023-02-15T03:16:42;1.40;99.90
6102;DHT22;3081;50.584;7.032;2023-02-15T03:19:14;1.40;99.90
6102;DHT22;3081;50.584;7.032;2023-02-15T03:21:44;1.40;99.90
6102;DHT22;3081;50.584;7.032;2023-02-15T03:24:20;1.30;99.90
6102;DHT22;3081;50.584;7.032;2023-02-15T03:26:50;1.30;99.90
6102;DHT22;3081;50.584;7.032;2023-02-15T03:29:19;1.30;99.90
6102;DHT22;3081;50.584;7.032;2023-02-15T03:31:50;1.30;99.90
6102;DHT22;3081;50.584;7.032;2023-02-15T03:34:19;1.30;99.90
6102;DHT22;3081;50.584;7.032;2023-02-15T03:36:49;1.30;99.90
6102;DHT22;3081;50.584;7.032;2023-02-15T03:39:22;1.20;99.90
6102;DHT22;3081;50.584;7.032;2023-02-15T03:41:58;1.20;99.90
6102;DHT22;3081;50.584;7.032;2023-02-15T03:44:29;1.20;99.90
6102;DHT22;3081;50.584;7.032;2023-02-15T03:47:02;1.20;99.90
6102;DHT22;3081;50.584;7.032;2023-02-15T03:49:37;1.20;99.90
6102;DHT22;3081;50.584;7.032;2023-02-15T03:52:07;1.30;99.90
6102;DHT22;3081;50.584;7.032;2023-02-15T03:54:35;1.20;99.90
6102;DHT22;3081;50.584;7.032;2023-02-15T03:57:15;1.20;99.90
6102;DHT22;3081;50.584;7.032;2023-02-15T04:00:04;1.20;99.90
6102;DHT22;3081;50.584;7.032;2023-02-15T04:03:08;1.20;99.90
6102;DHT22;3081;50.584;7.032;2023-02-15T04:05:37;1.10;99.90
6102;DHT22;3081;50.584;7.032;2023-02-15T04:08:04;1.10;99.90
6102;DHT22;3081;50.584;7.032;2023-02-15T04:10:31;1.10;99.90
6102;DHT22;3081;50.584;7.032;2023-02-15T04:13:16;1.10;99.90
6102;DHT22;3081;50.584;7.032;2023-02-15T04:15:43;1.10;99.90
6102;DHT22;3081;50.584;7.032;2023-02-15T04:18:27;1.10;99.90
6102;DHT22;3081;50.584;7.032;2023-02-15T04:21:13;1.10;99.90
6102;DHT22;3081;50.584;7.032;2023-02-15T04:23:57;1.10;99.90
6102;DHT22;3081;50.584;7.032;2023-02-15T04:26:41;1.10;99.90
6102;DHT22;3081;50.584;7.032;2023-02-15T04:29:08;1.10;99.90
6102;DHT22;3081;50.584;7.032;2023-02-15T04:31:35;1.10;99.90
6102;DHT22;3081;50.584;7.032;2023-02-15T04:34:02;1.10;99.90
6102;DHT22;3081;50.584;7.032;2023-02-15T04:36:30;1.10;99.90
6102;DHT22;3081;50.584;7.032;2023-02-15T04:38:57;1.10;99.90
6102;DHT22;3081;50.584;7.032;2023-02-15T04:41:24;1.10;99.90
6102;DHT22;3081;50.584;7.032;2023-02-15T04:43:51;1.10;99.90
6102;DHT22;3081;50.584;7.032;2023-02-15T04:46:17;1.10;99.90
6102;DHT22;3081;50.584;7.032;2023-02-15T04:48:44;1.20;99.90
6102;DHT22;3081;50.584;7.032;2023-02-15T04:51:11;1.10;99.90
6102;DHT22;3081;50.584;7.032;2023-02-15T04:53:40;1.10;99.90
6102;DHT22;3081;50.584;7.032;2023-02-15T04:56:06;1.00;99.90
6102;DHT22;3081;50.584;7.032;2023-02-15T04:58:33;1.00;99.90
6102;DHT22;3081;50.584;7.032;2023-02-15T05:01:00;1.00;99.90
6102;DHT22;3081;50.584;7.032;2023-02-15T05:03:27;1.10;99.90
6102;DHT22;3081;50.584;7.032;2023-02-15T05:05:54;1.10;99.90
6102;DHT22;3081;50.584;7.032;2023-02-15T05:08:21;1.10;99.90
6102;DHT22;3081;50.584;7.032;2023-02-15T05:10:49;1.10;99.90
6102;DHT22;3081;50.584;7.032;2023-02-15T05:13:16;1.20;99.90
6102;DHT22;3081;50.584;7.032;2023-02-15T05:15:47;1.20;99.90
6102;DHT22;3081;50.584;7.032;2023-02-15T05:18:15;1.30;99.90
6102;DHT22;3081;50.584;7.032;2023-02-15T05:20:42;1.30;99.90
6102;DHT22;3081;50.584;7.032;2023-02-15T05:23:09;1.30;99.90
6102;DHT22;3081;50.584;7.032;2023-02-15T05:25:36;1.30;99.90
6102;DHT22;3081;50.584;7.032;2023-02-15T05:28:23;1.20;99.90
6102;DHT22;3081;50.584;7.032;2023-02-15T05:30:56;1.20;99.90
6102;DHT22;3081;50.584;7.032;2023-02-15T05:33:26;1.10;99.90
6102;DHT22;3081;50.584;7.032;2023-02-15T05:35:53;1.20;99.90
6102;DHT22;3081;50.584;7.032;2023-02-15T05:38:20;1.10;99.90
6102;DHT22;3081;50.584;7.032;2023-02-15T05:40:47;1.10;99.90
6102;DHT22;3081;50.584;7.032;2023-02-15T05:43:14;1.10;99.90
6102;DHT22;3081;50.584;7.032;2023-02-15T05:45:45;1.10;99.90
6102;DHT22;3081;50.584;7.032;2023-02-15T05:48:12;1.10;99.90
6102;DHT22;3081;50.584;7.032;2023-02-15T05:50:39;1.10;99.90
6102;DHT22;3081;50.584;7.032;2023-02-15T05:53:06;1.10;99.90
6102;DHT22;3081;50.584;7.032;2023-02-15T05:55:33;1.10;99.90
6102;DHT22;3081;50.584;7.032;2023-02-15T05:58:00;1.00;99.90
6102;DHT22;3081;50.584;7.032;2023-02-15T06:00:27;1.00;99.90
6102;DHT22;3081;50.584;7.032;2023-02-15T06:02:55;1.10;99.90
6102;DHT22;3081;50.584;7.032;2023-02-15T06:05:22;1.10;99.90
6102;DHT22;3081;50.584;7.032;2023-02-15T06:07:49;1.10;99.90
6102;DHT22;3081;50.584;7.032;2023-02-15T06:10:16;1.10;99.90
6102;DHT22;3081;50.584;7.032;2023-02-15T06:12:44;1.00;99.90
6102;DHT22;3081;50.584;7.032;2023-02-15T06:15:11;1.00;99.90
6102;DHT22;3081;50.584;7.032;2023-02-15T06:17:41;1.00;99.90
6102;DHT22;3081;50.584;7.032;2023-02-15T06:20:10;1.00;99.90
6102;DHT22;3081;50.584;7.032;2023-02-15T06:22:37;1.00;99.90
6102;DHT22;3081;50.584;7.032;2023-02-15T06:25:04;0.90;99.90
6102;DHT22;3081;50.584;7.032;2023-02-15T06:27:31;0.90;99.90
6102;DHT22;3081;50.584;7.032;2023-02-15T06:29:58;0.90;99.90
6102;DHT22;3081;50.584;7.032;2023-02-15T06:32:25;0.90;99.90
6102;DHT22;3081;50.584;7.032;2023-02-15T06:34:52;0.90;99.90
6102;DHT22;3081;50.584;7.032;2023-02-15T06:37:20;0.90;99.90
6102;DHT22;3081;50.584;7.032;2023-02-15T06:39:47;0.90;99.90
6102;DHT22;3081;50.584;7.032;2023-02-15T06:42:14;0.90;99.90
6102;DHT22;3081;50.584;7.032;2023-02-15T06:44:41;0.90;99.90
6102;DHT22;3081;50.584;7.032;2023-02-15T06:47:08;0.80;99.90
6102;DHT22;3081;50.584;7.032;2023-02-15T06:49:34;0.80;99.90
6102;DHT22;3081;50.584;7.032;2023-02-15T06:52:01;0.80;99.90
6102;DHT22;3081;50.584;7.032;2023-02-15T06:54:30;0.80;99.90
6102;DHT22;3081;50.584;7.032;2023-02-15T06:56:57;0.70;99.90
6102;DHT22;3081;50.584;7.032;2023-02-15T06:59:24;0.70;99.90
6102;DHT22;3081;50.584;7.032;2023-02-15T07:01:50;0.70;99.90
6102;DHT22;3081;50.584;7.032;2023-02-15T07:04:17;0.70;99.90
6102;DHT22;3081;50.584;7.032;2023-02-15T07:06:44;0.70;99.90
6102;DHT22;3081;50.584;7.032;2023-02-15T07:09:11;0.80;99.90
6102;DHT22;3081;50.584;7.032;2023-02-15T07:11:40;0.90;99.90
6102;DHT22;3081;50.584;7.032;2023-02-15T07:14:24;0.90;99.90
6102;DHT22;3081;50.584;7.032;2023-02-15T07:16:51;1.00;99.90
6102;DHT22;3081;50.584;7.032;2023-02-15T07:19:18;1.00;99.90
6102;DHT22;3081;50.584;7.032;2023-02-15T07:21:45;1.10;99.90
6102;DHT22;3081;50.584;7.032;2023-02-15T07:24:12;1.00;99.90
6102;DHT22;3081;50.584;7.032;2023-02-15T07:26:40;1.10;99.90
6102;DHT22;3081;50.584;7.032;2023-02-15T07:29:07;1.10;99.90
6102;DHT22;3081;50.584;7.032;2023-02-15T07:31:34;1.10;99.90
6102;DHT22;3081;50.584;7.032;2023-02-15T07:34:01;1.10;99.90
6102;DHT22;3081;50.584;7.032;2023-02-15T07:36:28;1.10;99.90
6102;DHT22;3081;50.584;7.032;2023-02-15T07:38:55;1.20;99.90
6102;DHT22;3081;50.584;7.032;2023-02-15T07:41:22;1.20;99.90
6102;DHT22;3081;50.584;7.032;2023-02-15T07:43:51;1.30;99.90
6102;DHT22;3081;50.584;7.032;2023-02-15T07:46:18;1.40;99.90
6102;DHT22;3081;50.584;7.032;2023-02-15T07:48:46;1.60;99.90
6102;DHT22;3081;50.584;7.032;2023-02-15T07:51:14;1.70;99.90
6102;DHT22;3081;50.584;7.032;2023-02-15T07:53:41;1.80;99.90
6102;DHT22;3081;50.584;7.032;2023-02-15T07:56:10;1.90;99.90
6102;DHT22;3081;50.584;7.032;2023-02-15T07:58:38;2.00;99.90
6102;DHT22;3081;50.584;7.032;2023-02-15T08:01:19;2.40;99.90
6102;DHT22;3081;50.584;7.032;2023-02-15T08:03:47;3.10;99.90
6102;DHT22;3081;50.584;7.032;2023-02-15T08:06:14;3.90;99.90
6102;DHT22;3081;50.584;7.032;2023-02-15T08:08:41;4.70;99.90
6102;DHT22;3081;50.584;7.032;2023-02-15T08:11:16;5.20;99.90
6102;DHT22;3081;50.584;7.032;2023-02-15T08:13:56;5.60;99.90
6102;DHT22;3081;50.584;7.032;2023-02-15T08:16:28;6.00;99.90
6102;DHT22;3081;50.584;7.032;2023-02-15T08:18:55;6.40;99.90
6102;DHT22;3081;50.584;7.032;2023-02-15T08:21:24;6.60;99.90
6102;DHT22;3081;50.584;7.032;2023-02-15T08:23:52;6.90;99.90
6102;DHT22;3081;50.584;7.032;2023-02-15T08:26:19;7.20;99.90
6102;DHT22;3081;50.584;7.032;2023-02-15T08:28:45;7.50;99.90
6102;DHT22;3081;50.584;7.032;2023-02-15T08:31:13;8.00;99.90
6102;DHT22;3081;50.584;7.032;2023-02-15T08:33:43;8.20;99.90
6102;DHT22;3081;50.584;7.032;2023-02-15T08:36:14;8.40;99.90
6102;DHT22;3081;50.584;7.032;2023-02-15T08:38:42;8.60;99.90
6102;DHT22;3081;50.584;7.032;2023-02-15T08:41:11;8.90;99.90
6102;DHT22;3081;50.584;7.032;2023-02-15T08:43:39;9.40;99.90
6102;DHT22;3081;50.584;7.032;2023-02-15T08:46:06;9.50;99.90
6102;DHT22;3081;50.584;7.032;2023-02-15T08:48:33;9.60;99.90
6102;DHT22;3081;50.584;7.032;2023-02-15T08:51:07;9.70;99.90
6102;DHT22;3081;50.584;7.032;2023-02-15T08:53:36;9.80;99.90
6102;DHT22;3081;50.584;7.032;2023-02-15T08:56:03;10.10;99.90
6102;DHT22;3081;50.584;7.032;2023-02-15T08:58:30;10.30;99.90
6102;DHT22;3081;50.584;7.032;2023-02-15T09:00:58;10.20;99.90
6102;DHT22;3081;50.584;7.032;2023-02-15T09:03:25;10.40;99.90
6102;DHT22;3081;50.584;7.032;2023-02-15T09:05:57;10.50;99.90
6102;DHT22;3081;50.584;7.032;2023-02-15T09:08:26;10.50;99.90
6102;DHT22;3081;50.584;7.032;2023-02-15T09:10:53;10.50;99.90
6102;DHT22;3081;50.584;7.032;2023-02-15T09:13:20;10.80;99.90
6102;DHT22;3081;50.584;7.032;2023-02-15T09:15:47;11.20;99.90
6102;DHT22;3081;50.584;7.032;2023-02-15T09:18:14;11.60;99.90
6102;DHT22;3081;50.584;7.032;2023-02-15T09:20:43;12.30;99.90
6102;DHT22;3081;50.584;7.032;2023-02-15T09:23:10;12.70;99.90
6102;DHT22;3081;50.584;7.032;2023-02-15T09:25:39;13.10;99.90
6102;DHT22;3081;50.584;7.032;2023-02-15T09:28:05;13.40;99.90
6102;DHT22;3081;50.584;7.032;2023-02-15T09:30:33;13.50;99.70
6102;DHT22;3081;50.584;7.032;2023-02-15T09:33:00;13.60;99.00
6102;DHT22;3081;50.584;7.032;2023-02-15T09:35:27;13.70;98.10
6102;DHT22;3081;50.584;7.032;2023-02-15T09:37:54;13.90;98.00
6102;DHT22;3081;50.584;7.032;2023-02-15T09:40:22;14.00;97.40
6102;DHT22;3081;50.584;7.032;2023-02-15T09:43:12;14.10;97.10
6102;DHT22;3081;50.584;7.032;2023-02-15T09:48:39;14.80;95.80
6102;DHT22;3081;50.584;7.032;2023-02-15T09:51:26;14.80;94.90
6102;DHT22;3081;50.584;7.032;2023-02-15T09:54:08;14.90;93.90
6102;DHT22;3081;50.584;7.032;2023-02-15T09:56:45;15.10;94.70
6102;DHT22;3081;50.584;7.032;2023-02-15T09:59:21;15.60;93.80
6102;DHT22;3081;50.584;7.032;2023-02-15T10:02:01;16.10;93.00
6102;DHT22;3081;50.584;7.032;2023-02-15T10:04:44;16.50;91.10
6102;DHT22;3081;50.584;7.032;2023-02-15T10:07:24;16.50;91.10
6102;DHT22;3081;50.584;7.032;2023-02-15T10:10:03;16.70;90.20
6102;DHT22;3081;50.584;7.032;2023-02-15T10:12:43;16.80;90.00
6102;DHT22;3081;50.584;7.032;2023-02-15T10:15:34;17.00;87.50
6102;DHT22;3081;50.584;7.032;2023-02-15T10:18:23;17.00;87.70
6102;DHT22;3081;50.584;7.032;2023-02-15T10:20:56;17.20;86.00
6102;DHT22;3081;50.584;7.032;2023-02-15T10:23:44;17.40;84.20
6102;DHT22;3081;50.584;7.032;2023-02-15T10:26:18;17.40;84.10
6102;DHT22;3081;50.584;7.032;2023-02-15T10:28:48;17.40;85.00
6102;DHT22;3081;50.584;7.032;2023-02-15T10:31:28;17.80;83.60
6102;DHT22;3081;50.584;7.032;2023-02-15T10:34:13;18.20;81.60
6102;DHT22;3081;50.584;7.032;2023-02-15T10:37:01;18.40;80.90
6102;DHT22;3081;50.584;7.032;2023-02-15T10:39:36;18.50;80.50
6102;DHT22;3081;50.584;7.032;2023-02-15T10:42:09;19.00;77.20
6102;DHT22;3081;50.584;7.032;2023-02-15T10:44:49;18.90;77.20
6102;DHT22;3081;50.584;7.032;2023-02-15T10:47:30;19.00;75.80
6102;DHT22;3081;50.584;7.032;2023-02-15T10:50:26;19.00;75.30
6102;DHT22;3081;50.584;7.032;2023-02-15T10:53:09;19.10;76.10
6102;DHT22;3081;50.584;7.032;2023-02-15T10:55:50;19.10;74.40
6102;DHT22;3081;50.584;7.032;2023-02-15T10:58:29;18.80;75.00
6102;DHT22;3081;50.584;7.032;2023-02-15T11:01:05;18.80;75.40
6102;DHT22;3081;50.584;7.032;2023-02-15T11:03:59;18.90;74.70
6102;DHT22;3081;50.584;7.032;2023-02-15T11:06:33;18.80;74.20
6102;DHT22;3081;50.584;7.032;2023-02-15T11:09:03;18.80;74.30
6102;DHT22;3081;50.584;7.032;2023-02-15T11:11:34;18.80;74.70
6102;DHT22;3081;50.584;7.032;2023-02-15T11:14:03;19.00;74.50
6102;DHT22;3081;50.584;7.032;2023-02-15T11:16:35;19.40;72.60
6102;DHT22;3081;50.584;7.032;2023-02-15T11:19:08;19.60;71.20
6102;DHT22;3081;50.584;7.032;2023-02-15T11:21:40;19.50;72.30
6102;DHT22;3081;50.584;7.032;2023-02-15T11:24:12;19.30;72.10
6102;DHT22;3081;50.584;7.032;2023-02-15T11:26:43;19.40;71.20
6102;DHT22;3081;50.584;7.032;2023-02-15T11:29:13;19.50;71.70
6102;DHT22;3081;50.584;7.032;2023-02-15T11:31:44;19.70;71.30
6102;DHT22;3081;50.584;7.032;2023-02-15T11:34:18;20.00;70.70
6102;DHT22;3081;50.584;7.032;2023-02-15T11:36:49;20.30;70.00
6102;DHT22;3081;50.584;7.032;2023-02-15T11:39:18;20.40;69.20
6102;DHT22;3081;50.584;7.032;2023-02-15T11:41:49;20.60;68.90
6102;DHT22;3081;50.584;7.032;2023-02-15T11:44:21;20.80;67.40
6102;DHT22;3081;50.584;7.032;2023-02-15T11:46:52;20.90;66.90
6102;DHT22;3081;50.584;7.032;2023-02-15T11:49:26;20.90;66.30
6102;DHT22;3081;50.584;7.032;2023-02-15T11:51:55;20.90;66.40
6102;DHT22;3081;50.584;7.032;2023-02-15T11:54:26;20.90;65.60
6102;DHT22;3081;50.584;7.032;2023-02-15T11:56:55;20.70;65.30
6102;DHT22;3081;50.584;7.032;2023-02-15T11:59:28;20.70;65.90
6102;DHT22;3081;50.584;7.032;2023-02-15T12:01:56;20.70;65.70
6102;DHT22;3081;50.584;7.032;2023-02-15T12:04:28;20.80;65.90
6102;DHT22;3081;50.584;7.032;2023-02-15T12:06:59;20.60;65.30
6102;DHT22;3081;50.584;7.032;2023-02-15T12:09:33;20.90;64.70
6102;DHT22;3081;50.584;7.032;2023-02-15T12:12:20;20.70;65.70
6102;DHT22;3081;50.584;7.032;2023-02-15T12:14:48;20.80;65.40
6102;DHT22;3081;50.584;7.032;2023-02-15T12:17:16;20.90;64.60
6102;DHT22;3081;50.584;7.032;2023-02-15T12:19:45;21.00;65.00
6102;DHT22;3081;50.584;7.032;2023-02-15T12:22:21;21.20;64.20
6102;DHT22;3081;50.584;7.032;2023-02-15T12:24:50;21.20;64.10
6102;DHT22;3081;50.584;7.032;2023-02-15T12:27:19;21.20;63.80
6102;DHT22;3081;50.584;7.032;2023-02-15T12:29:50;21.10;64.10
6102;DHT22;3081;50.584;7.032;2023-02-15T12:32:19;21.20;63.70
6102;DHT22;3081;50.584;7.032;2023-02-15T12:34:51;21.20;63.70
6102;DHT22;3081;50.584;7.032;2023-02-15T12:37:22;21.10;63.10
6102;DHT22;3081;50.584;7.032;2023-02-15T12:39:55;20.60;63.90
6102;DHT22;3081;50.584;7.032;2023-02-15T12:42:22;20.40;64.40
6102;DHT22;3081;50.584;7.032;2023-02-15T12:44:55;20.20;65.50
6102;DHT22;3081;50.584;7.032;2023-02-15T12:47:23;20.00;65.90
6102;DHT22;3081;50.584;7.032;2023-02-15T12:50:13;20.00;65.90
6102;DHT22;3081;50.584;7.032;2023-02-15T12:52:44;20.10;66.50
6102;DHT22;3081;50.584;7.032;2023-02-15T12:55:21;20.20;65.80
6102;DHT22;3081;50.584;7.032;2023-02-15T12:57:48;20.50;66.70
6102;DHT22;3081;50.584;7.032;2023-02-15T13:00:28;20.30;66.00
6102;DHT22;3081;50.584;7.032;2023-02-15T13:02:58;20.40;65.60
6102;DHT22;3081;50.584;7.032;2023-02-15T13:05:31;20.60;65.50
6102;DHT22;3081;50.584;7.032;2023-02-15T13:08:02;20.60;65.20
6102;DHT22;3081;50.584;7.032;2023-02-15T13:10:33;20.80;65.60
6102;DHT22;3081;50.584;7.032;2023-02-15T13:13:02;20.80;65.00
6102;DHT22;3081;50.584;7.032;2023-02-15T13:15:38;21.00;64.40
6102;DHT22;3081;50.584;7.032;2023-02-15T13:18:13;21.40;64.40
6102;DHT22;3081;50.584;7.032;2023-02-15T13:20:42;21.60;64.40
6102;DHT22;3081;50.584;7.032;2023-02-15T13:23:23;21.90;63.40
6102;DHT22;3081;50.584;7.032;2023-02-15T13:25:54;22.30;62.50
6102;DHT22;3081;50.584;7.032;2023-02-15T13:28:24;22.50;62.10
6102;DHT22;3081;50.584;7.032;2023-02-15T13:30:52;22.80;61.50
6102;DHT22;3081;50.584;7.032;2023-02-15T13:33:24;23.20;61.20
6102;DHT22;3081;50.584;7.032;2023-02-15T13:36:02;23.40;60.50
6102;DHT22;3081;50.584;7.032;2023-02-15T13:38:49;23.60;60.00
6102;DHT22;3081;50.584;7.032;2023-02-15T13:41:23;23.50;59.60
6102;DHT22;3081;50.584;7.032;2023-02-15T13:43:59;23.50;60.20
6102;DHT22;3081;50.584;7.032;2023-02-15T13:46:48;23.60;59.40
6102;DHT22;3081;50.584;7.032;2023-02-15T13:49:30;23.70;59.40
6102;DHT22;3081;50.584;7.032;2023-02-15T13:52:06;23.80;58.90
6102;DHT22;3081;50.584;7.032;2023-02-15T13:54:59;23.70;58.60
6102;DHT22;3081;50.584;7.032;2023-02-15T13:57:39;23.70;58.80
6102;DHT22;3081;50.584;7.032;2023-02-15T14:00:17;23.90;59.10
6102;DHT22;3081;50.584;7.032;2023-02-15T14:03:01;24.20;57.80
6102;DHT22;3081;50.584;7.032;2023-02-15T14:05:41;24.10;57.70
6102;DHT22;3081;50.584;7.032;2023-02-15T14:08:23;24.00;58.00
6102;DHT22;3081;50.584;7.032;2023-02-15T14:10:59;24.20;58.10
6102;DHT22;3081;50.584;7.032;2023-02-15T14:13:56;24.00;58.10
6102;DHT22;3081;50.584;7.032;2023-02-15T14:16:36;24.00;57.90
6102;DHT22;3081;50.584;7.032;2023-02-15T14:19:16;24.20;57.40
6102;DHT22;3081;50.584;7.032;2023-02-15T14:21:48;24.20;57.40
6102;DHT22;3081;50.584;7.032;2023-02-15T14:24:27;23.90;58.10
6102;DHT22;3081;50.584;7.032;2023-02-15T14:27:03;24.20;57.60
6102;DHT22;3081;50.584;7.032;2023-02-15T14:29:46;24.20;57.70
6102;DHT22;3081;50.584;7.032;2023-02-15T14:32:18;24.20;57.30
6102;DHT22;3081;50.584;7.032;2023-02-15T14:34:50;23.70;58.10
6102;DHT22;3081;50.584;7.032;2023-02-15T14:37:23;23.00;59.00
6102;DHT22;3081;50.584;7.032;2023-02-15T14:39:58;22.30;59.90
6102;DHT22;3081;50.584;7.032;2023-02-15T14:42:52;21.80;61.20
6102;DHT22;3081;50.584;7.032;2023-02-15T14:45:23;21.40;62.00
6102;DHT22;3081;50.584;7.032;2023-02-15T14:47:57;21.00;62.80
6102;DHT22;3081;50.584;7.032;2023-02-15T14:50:38;20.10;64.50
6102;DHT22;3081;50.584;7.032;2023-02-15T14:56:29;18.40;69.10
6102;DHT22;3081;50.584;7.032;2023-02-15T14:59:11;17.40;71.80
6102;DHT22;3081;50.584;7.032;2023-02-15T15:01:40;16.70;73.50
6102;DHT22;3081;50.584;7.032;2023-02-15T15:04:10;16.20;74.60
6102;DHT22;3081;50.584;7.032;2023-02-15T15:06:41;16.10;75.10
6102;DHT22;3081;50.584;7.032;2023-02-15T15:09:12;15.90;75.70
6102;DHT22;3081;50.584;7.032;2023-02-15T15:11:44;15.80;76.40
6102;DHT22;3081;50.584;7.032;2023-02-15T15:14:39;15.70;76.90
6102;DHT22;3081;50.584;7.032;2023-02-15T15:17:10;15.50;77.30
6102;DHT22;3081;50.584;7.032;2023-02-15T15:20:11;15.40;78.00
6102;DHT22;3081;50.584;7.032;2023-02-15T15:22:40;15.20;78.70
6102;DHT22;3081;50.584;7.032;2023-02-15T15:25:12;15.10;79.30
6102;DHT22;3081;50.584;7.032;2023-02-15T15:28:01;15.00;80.00
6102;DHT22;3081;50.584;7.032;2023-02-15T15:30:47;14.80;80.30
6102;DHT22;3081;50.584;7.032;2023-02-15T15:42:13;14.30;82.70
6102;DHT22;3081;50.584;7.032;2023-02-15T15:45:15;14.30;83.00
6102;DHT22;3081;50.584;7.032;2023-02-15T15:47:56;14.20;83.20
6102;DHT22;3081;50.584;7.032;2023-02-15T15:50:25;14.00;84.00
6102;DHT22;3081;50.584;7.032;2023-02-15T15:52:55;13.80;84.70
6102;DHT22;3081;50.584;7.032;2023-02-15T15:55:26;13.60;85.40
6102;DHT22;3081;50.584;7.032;2023-02-15T15:57:56;13.50;86.10
6102;DHT22;3081;50.584;7.032;2023-02-15T16:00:34;13.30;86.60
6102;DHT22;3081;50.584;7.032;2023-02-15T16:03:02;13.10;87.20
6102;DHT22;3081;50.584;7.032;2023-02-15T16:05:36;12.90;87.80
6102;DHT22;3081;50.584;7.032;2023-02-15T16:08:03;12.70;88.20
6102;DHT22;3081;50.584;7.032;2023-02-15T16:10:31;12.50;88.90
6102;DHT22;3081;50.584;7.032;2023-02-15T16:13:00;12.40;89.40
6102;DHT22;3081;50.584;7.032;2023-02-15T16:15:35;12.20;89.80
6102;DHT22;3081;50.584;7.032;2023-02-15T16:18:02;12.10;90.10
6102;DHT22;3081;50.584;7.032;2023-02-15T16:20:32;11.90;90.20
6102;DHT22;3081;50.584;7.032;2023-02-15T16:23:21;11.80;90.60
6102;DHT22;3081;50.584;7.032;2023-02-15T16:25:59;11.60;90.80
6102;DHT22;3081;50.584;7.032;2023-02-15T16:28:30;11.40;91.10
6102;DHT22;3081;50.584;7.032;2023-02-15T16:31:06;11.20;91.50
6102;DHT22;3081;50.584;7.032;2023-02-15T16:33:37;11.00;91.90
6102;DHT22;3081;50.584;7.032;2023-02-15T16:36:05;10.80;92.10
6102;DHT22;3081;50.584;7.032;2023-02-15T16:41:42;10.50;92.60
6102;DHT22;3081;50.584;7.032;2023-02-15T16:44:16;10.40;92.80
6102;DHT22;3081;50.584;7.032;2023-02-15T16:46:47;10.20;93.10
6102;DHT22;3081;50.584;7.032;2023-02-15T16:49:17;10.10;93.40
6102;DHT22;3081;50.584;7.032;2023-02-15T16:51:55;10.00;93.50
6102;DHT22;3081;50.584;7.032;2023-02-15T16:54:24;9.90;93.70
6102;DHT22;3081;50.584;7.032;2023-02-15T16:56:52;9.80;93.70
6102;DHT22;3081;50.584;7.032;2023-02-15T16:59:26;9.80;94.00
6102;DHT22;3081;50.584;7.032;2023-02-15T17:01:57;9.70;94.30
6102;DHT22;3081;50.584;7.032;2023-02-15T17:04:28;9.60;94.50